sensor_id;sensor_type;location;lat;lon;timestamp;P1;durP1;ratioP1;P2;durP2;ratioP2
59978;SDS011;45839;44.882;20.650;2024-01-27T00:01:23;120.60;;;56.85;;
59978;SDS011;45839;44.882;20.650;2024-01-27T00:03:49;120.40;;;57.70;;
59978;SDS011;45839;44.882;20.650;2024-01-27T00:06:15;104.55;;;51.90;;
59978;SDS011;45839;44.882;20.650;2024-01-27T00:08:41;97.30;;;49.40;;
59978;SDS011;45839;44.882;20.650;2024-01-27T00:11:07;88.78;;;44.55;;
59978;SDS011;45839;44.882;20.650;2024-01-27T00:13:33;89.43;;;44.58;;
59978;SDS011;45839;44.882;20.650;2024-01-27T00:16:00;87.25;;;42.63;;
59978;SDS011;45839;44.882;20.650;2024-01-27T00:18:26;75.88;;;39.08;;
59978;SDS011;45839;44.882;20.650;2024-01-27T00:20:52;76.07;;;38.10;;
59978;SDS011;45839;44.882;20.650;2024-01-27T00:23:18;77.55;;;37.72;;
59978;SDS011;45839;44.882;20.650;2024-01-27T00:25:44;73.20;;;38.13;;
59978;SDS011;45839;44.882;20.650;2024-01-27T00:28:11;77.72;;;38.08;;
59978;SDS011;45839;44.882;20.650;2024-01-27T00:30:37;70.32;;;37.55;;
59978;SDS011;45839;44.882;20.650;2024-01-27T00:33:03;74.90;;;36.85;;
59978;SDS011;45839;44.882;20.650;2024-01-27T00:35:29;75.65;;;38.00;;
59978;SDS011;45839;44.882;20.650;2024-01-27T00:37:55;67.38;;;36.42;;
59978;SDS011;45839;44.882;20.650;2024-01-27T00:40:22;61.88;;;34.97;;
59978;SDS011;45839;44.882;20.650;2024-01-27T00:42:48;64.50;;;34.17;;
59978;SDS011;45839;44.882;20.650;2024-01-27T00:45:14;64.03;;;33.97;;
59978;SDS011;45839;44.882;20.650;2024-01-27T00:47:40;58.42;;;31.83;;
59978;SDS011;45839;44.882;20.650;2024-01-27T00:50:06;56.13;;;31.67;;
59978;SDS011;45839;44.882;20.650;2024-01-27T00:52:33;58.72;;;32.17;;
59978;SDS011;45839;44.882;20.650;2024-01-27T00:54:59;61.03;;;31.00;;
59978;SDS011;45839;44.882;20.650;2024-01-27T00:57:25;54.58;;;30.33;;
59978;SDS011;45839;44.882;20.650;2024-01-27T00:59:52;55.80;;;29.70;;
59978;SDS011;45839;44.882;20.650;2024-01-27T01:02:18;45.90;;;26.40;;
59978;SDS011;45839;44.882;20.650;2024-01-27T01:04:44;50.95;;;27.08;;
59978;SDS011;45839;44.882;20.650;2024-01-27T01:07:10;45.83;;;24.77;;
59978;SDS011;45839;44.882;20.650;2024-01-27T01:09:36;43.95;;;25.30;;
59978;SDS011;45839;44.882;20.650;2024-01-27T01:12:02;45.80;;;25.60;;
59978;SDS011;45839;44.882;20.650;2024-01-27T01:14:28;45.92;;;24.60;;
59978;SDS011;45839;44.882;20.650;2024-01-27T01:16:54;45.95;;;25.83;;
59978;SDS011;45839;44.882;20.650;2024-01-27T01:19:20;44.83;;;24.55;;
59978;SDS011;45839;44.882;20.650;2024-01-27T01:21:46;44.60;;;24.75;;
59978;SDS011;45839;44.882;20.650;2024-01-27T01:24:12;42.20;;;24.25;;
59978;SDS011;45839;44.882;20.650;2024-01-27T01:26:38;52.53;;;27.30;;
59978;SDS011;45839;44.882;20.650;2024-01-27T01:29:05;44.67;;;25.60;;
59978;SDS011;45839;44.882;20.650;2024-01-27T01:31:31;50.92;;;26.77;;
59978;SDS011;45839;44.882;20.650;2024-01-27T01:33:57;48.78;;;26.33;;
59978;SDS011;45839;44.882;20.650;2024-01-27T01:36:23;49.50;;;27.30;;
59978;SDS011;45839;44.882;20.650;2024-01-27T01:38:49;47.40;;;26.77;;
59978;SDS011;45839;44.882;20.650;2024-01-27T01:41:15;45.35;;;24.95;;
59978;SDS011;45839;44.882;20.650;2024-01-27T01:43:41;47.90;;;26.63;;
59978;SDS011;45839;44.882;20.650;2024-01-27T01:46:07;52.28;;;27.55;;
59978;SDS011;45839;44.882;20.650;2024-01-27T01:48:33;46.55;;;26.88;;
59978;SDS011;45839;44.882;20.650;2024-01-27T01:51:00;42.47;;;25.88;;
59978;SDS011;45839;44.882;20.650;2024-01-27T01:53:26;53.28;;;27.35;;
59978;SDS011;45839;44.882;20.650;2024-01-27T01:55:53;49.10;;;26.48;;
59978;SDS011;45839;44.882;20.650;2024-01-27T01:58:19;52.97;;;27.63;;
59978;SDS011;45839;44.882;20.650;2024-01-27T02:00:45;46.60;;;27.25;;
59978;SDS011;45839;44.882;20.650;2024-01-27T02:03:11;56.55;;;31.48;;
59978;SDS011;45839;44.882;20.650;2024-01-27T02:05:37;49.72;;;27.92;;
59978;SDS011;45839;44.882;20.650;2024-01-27T02:08:04;53.55;;;29.02;;
59978;SDS011;45839;44.882;20.650;2024-01-27T02:10:30;54.08;;;29.40;;
59978;SDS011;45839;44.882;20.650;2024-01-27T02:13:15;51.88;;;29.88;;
59978;SDS011;45839;44.882;20.650;2024-01-27T02:15:43;45.58;;;26.98;;
59978;SDS011;45839;44.882;20.650;2024-01-27T02:18:09;51.65;;;26.33;;
59978;SDS011;45839;44.882;20.650;2024-01-27T02:20:35;47.42;;;27.38;;
59978;SDS011;45839;44.882;20.650;2024-01-27T02:23:03;46.25;;;26.67;;
59978;SDS011;45839;44.882;20.650;2024-01-27T02:25:30;51.55;;;26.33;;
59978;SDS011;45839;44.882;20.650;2024-01-27T02:27:56;44.53;;;24.80;;
59978;SDS011;45839;44.882;20.650;2024-01-27T02:30:22;55.05;;;27.83;;
59978;SDS011;45839;44.882;20.650;2024-01-27T02:32:48;48.95;;;25.55;;
59978;SDS011;45839;44.882;20.650;2024-01-27T02:35:14;54.60;;;26.80;;
59978;SDS011;45839;44.882;20.650;2024-01-27T02:37:41;47.50;;;25.67;;
59978;SDS011;45839;44.882;20.650;2024-01-27T02:40:08;49.42;;;25.98;;
59978;SDS011;45839;44.882;20.650;2024-01-27T02:42:37;51.53;;;26.13;;
59978;SDS011;45839;44.882;20.650;2024-01-27T02:45:03;46.90;;;25.30;;
59978;SDS011;45839;44.882;20.650;2024-01-27T02:47:30;51.22;;;26.35;;
59978;SDS011;45839;44.882;20.650;2024-01-27T02:49:56;50.85;;;25.95;;
59978;SDS011;45839;44.882;20.650;2024-01-27T02:52:22;47.50;;;25.55;;
59978;SDS011;45839;44.882;20.650;2024-01-27T02:54:48;49.53;;;24.45;;
59978;SDS011;45839;44.882;20.650;2024-01-27T02:57:14;45.38;;;24.02;;
59978;SDS011;45839;44.882;20.650;2024-01-27T02:59:44;43.03;;;23.88;;
59978;SDS011;45839;44.882;20.650;2024-01-27T03:02:10;45.35;;;22.95;;
59978;SDS011;45839;44.882;20.650;2024-01-27T03:04:36;44.95;;;22.45;;
59978;SDS011;45839;44.882;20.650;2024-01-27T03:07:02;48.33;;;20.92;;
59978;SDS011;45839;44.882;20.650;2024-01-27T03:09:29;41.10;;;20.05;;
59978;SDS011;45839;44.882;20.650;2024-01-27T03:11:56;38.08;;;19.00;;
59978;SDS011;45839;44.882;20.650;2024-01-27T03:14:22;37.60;;;16.98;;
59978;SDS011;45839;44.882;20.650;2024-01-27T03:16:48;35.25;;;16.60;;
59978;SDS011;45839;44.882;20.650;2024-01-27T03:19:14;30.60;;;15.35;;
59978;SDS011;45839;44.882;20.650;2024-01-27T03:21:40;30.42;;;15.20;;
59978;SDS011;45839;44.882;20.650;2024-01-27T03:24:06;29.38;;;14.80;;
59978;SDS011;45839;44.882;20.650;2024-01-27T03:26:32;28.65;;;13.80;;
59978;SDS011;45839;44.882;20.650;2024-01-27T03:28:58;24.05;;;12.05;;
59978;SDS011;45839;44.882;20.650;2024-01-27T03:31:30;20.17;;;9.75;;
59978;SDS011;45839;44.882;20.650;2024-01-27T03:34:00;21.75;;;9.25;;
59978;SDS011;45839;44.882;20.650;2024-01-27T03:36:26;16.75;;;7.53;;
59978;SDS011;45839;44.882;20.650;2024-01-27T03:38:53;12.05;;;6.03;;
59978;SDS011;45839;44.882;20.650;2024-01-27T03:41:19;15.60;;;6.10;;
59978;SDS011;45839;44.882;20.650;2024-01-27T03:43:45;14.30;;;6.63;;
59978;SDS011;45839;44.882;20.650;2024-01-27T03:46:11;15.60;;;6.18;;
59978;SDS011;45839;44.882;20.650;2024-01-27T03:48:37;11.32;;;5.20;;
59978;SDS011;45839;44.882;20.650;2024-01-27T03:51:03;11.98;;;5.00;;
59978;SDS011;45839;44.882;20.650;2024-01-27T03:53:30;11.00;;;4.40;;
59978;SDS011;45839;44.882;20.650;2024-01-27T03:55:56;12.25;;;5.15;;
59978;SDS011;45839;44.882;20.650;2024-01-27T03:58:29;12.07;;;4.80;;
59978;SDS011;45839;44.882;20.650;2024-01-27T04:00:56;10.48;;;4.50;;
59978;SDS011;45839;44.882;20.650;2024-01-27T04:03:22;12.02;;;4.65;;
59978;SDS011;45839;44.882;20.650;2024-01-27T04:05:48;12.13;;;4.38;;
59978;SDS011;45839;44.882;20.650;2024-01-27T04:08:14;11.45;;;4.63;;
59978;SDS011;45839;44.882;20.650;2024-01-27T04:10:41;7.18;;;3.60;;
59978;SDS011;45839;44.882;20.650;2024-01-27T04:13:07;11.23;;;4.65;;
59978;SDS011;45839;44.882;20.650;2024-01-27T04:15:33;8.63;;;3.58;;
59978;SDS011;45839;44.882;20.650;2024-01-27T04:18:06;11.60;;;4.22;;
59978;SDS011;45839;44.882;20.650;2024-01-27T04:20:37;11.18;;;4.65;;
59978;SDS011;45839;44.882;20.650;2024-01-27T04:23:03;11.00;;;4.40;;
59978;SDS011;45839;44.882;20.650;2024-01-27T04:25:29;12.20;;;3.92;;
59978;SDS011;45839;44.882;20.650;2024-01-27T04:27:55;7.93;;;3.65;;
59978;SDS011;45839;44.882;20.650;2024-01-27T04:30:21;9.77;;;3.22;;
59978;SDS011;45839;44.882;20.650;2024-01-27T04:32:47;9.43;;;3.42;;
59978;SDS011;45839;44.882;20.650;2024-01-27T04:35:17;7.35;;;2.58;;
59978;SDS011;45839;44.882;20.650;2024-01-27T04:37:43;8.02;;;2.60;;
59978;SDS011;45839;44.882;20.650;2024-01-27T04:40:10;7.07;;;2.22;;
59978;SDS011;45839;44.882;20.650;2024-01-27T04:42:37;7.55;;;2.55;;
59978;SDS011;45839;44.882;20.650;2024-01-27T04:45:04;7.45;;;2.53;;
59978;SDS011;45839;44.882;20.650;2024-01-27T04:47:31;4.63;;;1.70;;
59978;SDS011;45839;44.882;20.650;2024-01-27T04:49:57;6.22;;;1.92;;
59978;SDS011;45839;44.882;20.650;2024-01-27T04:52:23;7.55;;;1.90;;
59978;SDS011;45839;44.882;20.650;2024-01-27T04:54:51;5.50;;;1.80;;
59978;SDS011;45839;44.882;20.650;2024-01-27T04:57:17;5.78;;;1.70;;
59978;SDS011;45839;44.882;20.650;2024-01-27T04:59:43;3.72;;;1.50;;
59978;SDS011;45839;44.882;20.650;2024-01-27T05:02:10;6.63;;;2.05;;
59978;SDS011;45839;44.882;20.650;2024-01-27T05:04:37;5.07;;;1.63;;
59978;SDS011;45839;44.882;20.650;2024-01-27T05:07:03;7.53;;;2.08;;
59978;SDS011;45839;44.882;20.650;2024-01-27T05:09:29;7.95;;;2.45;;
59978;SDS011;45839;44.882;20.650;2024-01-27T05:11:55;7.15;;;2.60;;
59978;SDS011;45839;44.882;20.650;2024-01-27T05:14:21;5.25;;;2.25;;
59978;SDS011;45839;44.882;20.650;2024-01-27T05:16:47;5.88;;;1.60;;
59978;SDS011;45839;44.882;20.650;2024-01-27T05:19:13;7.40;;;1.70;;
59978;SDS011;45839;44.882;20.650;2024-01-27T05:21:42;5.15;;;1.48;;
59978;SDS011;45839;44.882;20.650;2024-01-27T05:24:08;3.63;;;1.60;;
59978;SDS011;45839;44.882;20.650;2024-01-27T05:26:34;4.97;;;1.30;;
59978;SDS011;45839;44.882;20.650;2024-01-27T05:29:00;4.75;;;1.13;;
59978;SDS011;45839;44.882;20.650;2024-01-27T05:31:26;5.82;;;1.58;;
59978;SDS011;45839;44.882;20.650;2024-01-27T05:33:52;4.63;;;1.15;;
59978;SDS011;45839;44.882;20.650;2024-01-27T05:36:18;4.25;;;1.30;;
59978;SDS011;45839;44.882;20.650;2024-01-27T05:38:45;5.50;;;1.17;;
59978;SDS011;45839;44.882;20.650;2024-01-27T05:41:11;4.57;;;1.30;;
59978;SDS011;45839;44.882;20.650;2024-01-27T05:43:37;6.80;;;1.63;;
59978;SDS011;45839;44.882;20.650;2024-01-27T05:46:03;3.70;;;1.20;;
59978;SDS011;45839;44.882;20.650;2024-01-27T05:48:30;7.85;;;1.40;;
59978;SDS011;45839;44.882;20.650;2024-01-27T05:50:56;2.95;;;1.10;;
59978;SDS011;45839;44.882;20.650;2024-01-27T05:53:23;5.78;;;1.20;;
59978;SDS011;45839;44.882;20.650;2024-01-27T05:55:49;4.03;;;1.42;;
59978;SDS011;45839;44.882;20.650;2024-01-27T05:58:15;7.40;;;1.25;;
59978;SDS011;45839;44.882;20.650;2024-01-27T06:00:44;6.28;;;1.50;;
59978;SDS011;45839;44.882;20.650;2024-01-27T06:03:10;5.47;;;1.25;;
59978;SDS011;45839;44.882;20.650;2024-01-27T06:05:36;6.05;;;1.23;;
59978;SDS011;45839;44.882;20.650;2024-01-27T06:08:03;4.07;;;1.10;;
59978;SDS011;45839;44.882;20.650;2024-01-27T06:10:29;3.47;;;1.20;;
59978;SDS011;45839;44.882;20.650;2024-01-27T06:12:56;3.90;;;1.70;;
59978;SDS011;45839;44.882;20.650;2024-01-27T06:15:22;6.57;;;1.30;;
59978;SDS011;45839;44.882;20.650;2024-01-27T06:17:48;4.03;;;1.27;;
59978;SDS011;45839;44.882;20.650;2024-01-27T06:20:14;5.13;;;1.50;;
59978;SDS011;45839;44.882;20.650;2024-01-27T06:22:44;6.75;;;1.70;;
59978;SDS011;45839;44.882;20.650;2024-01-27T06:25:10;4.32;;;1.33;;
59978;SDS011;45839;44.882;20.650;2024-01-27T06:27:36;4.78;;;1.27;;
59978;SDS011;45839;44.882;20.650;2024-01-27T06:30:08;4.97;;;1.45;;
59978;SDS011;45839;44.882;20.650;2024-01-27T06:32:35;5.63;;;1.40;;
59978;SDS011;45839;44.882;20.650;2024-01-27T06:35:01;5.72;;;1.20;;
59978;SDS011;45839;44.882;20.650;2024-01-27T06:37:28;4.70;;;1.35;;
59978;SDS011;45839;44.882;20.650;2024-01-27T06:39:54;2.97;;;1.20;;
59978;SDS011;45839;44.882;20.650;2024-01-27T06:42:20;5.03;;;1.30;;
59978;SDS011;45839;44.882;20.650;2024-01-27T06:44:46;4.47;;;1.38;;
59978;SDS011;45839;44.882;20.650;2024-01-27T06:47:12;6.65;;;1.40;;
59978;SDS011;45839;44.882;20.650;2024-01-27T06:49:38;4.38;;;1.13;;
59978;SDS011;45839;44.882;20.650;2024-01-27T06:52:04;3.90;;;1.20;;
59978;SDS011;45839;44.882;20.650;2024-01-27T06:54:30;4.95;;;1.40;;
59978;SDS011;45839;44.882;20.650;2024-01-27T06:56:58;4.20;;;1.40;;
59978;SDS011;45839;44.882;20.650;2024-01-27T06:59:25;5.80;;;1.33;;
59978;SDS011;45839;44.882;20.650;2024-01-27T07:01:51;4.65;;;1.20;;
59978;SDS011;45839;44.882;20.650;2024-01-27T07:04:17;40.88;;;19.80;;
59978;SDS011;45839;44.882;20.650;2024-01-27T07:06:43;14.73;;;7.43;;
59978;SDS011;45839;44.882;20.650;2024-01-27T07:09:11;6.22;;;2.03;;
59978;SDS011;45839;44.882;20.650;2024-01-27T07:11:37;5.53;;;1.52;;
59978;SDS011;45839;44.882;20.650;2024-01-27T07:14:03;5.55;;;1.67;;
59978;SDS011;45839;44.882;20.650;2024-01-27T07:16:31;4.70;;;1.30;;
59978;SDS011;45839;44.882;20.650;2024-01-27T07:18:59;4.57;;;1.10;;
59978;SDS011;45839;44.882;20.650;2024-01-27T07:21:25;4.32;;;1.45;;
59978;SDS011;45839;44.882;20.650;2024-01-27T07:23:54;6.40;;;1.77;;
59978;SDS011;45839;44.882;20.650;2024-01-27T07:26:20;4.63;;;1.50;;
59978;SDS011;45839;44.882;20.650;2024-01-27T07:28:46;5.95;;;1.75;;
59978;SDS011;45839;44.882;20.650;2024-01-27T07:31:12;4.13;;;1.60;;
59978;SDS011;45839;44.882;20.650;2024-01-27T07:33:39;6.35;;;2.10;;
59978;SDS011;45839;44.882;20.650;2024-01-27T07:36:05;6.30;;;1.58;;
59978;SDS011;45839;44.882;20.650;2024-01-27T07:38:31;4.93;;;1.60;;
59978;SDS011;45839;44.882;20.650;2024-01-27T07:40:57;4.55;;;1.52;;
59978;SDS011;45839;44.882;20.650;2024-01-27T07:43:24;3.25;;;1.40;;
59978;SDS011;45839;44.882;20.650;2024-01-27T07:45:52;4.68;;;1.48;;
59978;SDS011;45839;44.882;20.650;2024-01-27T07:48:18;5.13;;;1.60;;
59978;SDS011;45839;44.882;20.650;2024-01-27T07:50:44;5.75;;;1.63;;
59978;SDS011;45839;44.882;20.650;2024-01-27T07:53:13;4.75;;;1.50;;
59978;SDS011;45839;44.882;20.650;2024-01-27T07:55:40;5.72;;;1.67;;
59978;SDS011;45839;44.882;20.650;2024-01-27T07:58:06;4.28;;;1.65;;
59978;SDS011;45839;44.882;20.650;2024-01-27T08:00:32;5.65;;;1.60;;
59978;SDS011;45839;44.882;20.650;2024-01-27T08:02:58;5.60;;;1.70;;
59978;SDS011;45839;44.882;20.650;2024-01-27T08:05:24;6.00;;;1.77;;
59978;SDS011;45839;44.882;20.650;2024-01-27T08:07:50;5.65;;;1.40;;
59978;SDS011;45839;44.882;20.650;2024-01-27T08:10:16;6.47;;;1.80;;
59978;SDS011;45839;44.882;20.650;2024-01-27T08:12:43;5.35;;;1.50;;
59978;SDS011;45839;44.882;20.650;2024-01-27T08:15:09;4.55;;;1.50;;
59978;SDS011;45839;44.882;20.650;2024-01-27T08:17:35;5.90;;;2.05;;
59978;SDS011;45839;44.882;20.650;2024-01-27T08:20:01;6.57;;;1.80;;
59978;SDS011;45839;44.882;20.650;2024-01-27T08:22:27;5.53;;;1.80;;
59978;SDS011;45839;44.882;20.650;2024-01-27T08:24:54;6.00;;;1.90;;
59978;SDS011;45839;44.882;20.650;2024-01-27T08:27:20;6.50;;;1.73;;
59978;SDS011;45839;44.882;20.650;2024-01-27T08:29:46;6.85;;;1.90;;
59978;SDS011;45839;44.882;20.650;2024-01-27T08:32:12;5.88;;;1.70;;
59978;SDS011;45839;44.882;20.650;2024-01-27T08:34:38;4.95;;;1.65;;
59978;SDS011;45839;44.882;20.650;2024-01-27T08:37:13;7.70;;;2.10;;
59978;SDS011;45839;44.882;20.650;2024-01-27T08:39:40;11.57;;;2.75;;
59978;SDS011;45839;44.882;20.650;2024-01-27T08:42:06;13.75;;;4.78;;
59978;SDS011;45839;44.882;20.650;2024-01-27T08:44:32;16.60;;;4.78;;
59978;SDS011;45839;44.882;20.650;2024-01-27T08:46:58;26.65;;;7.80;;
59978;SDS011;45839;44.882;20.650;2024-01-27T08:49:24;21.85;;;5.00;;
59978;SDS011;45839;44.882;20.650;2024-01-27T08:51:50;8.20;;;2.15;;
59978;SDS011;45839;44.882;20.650;2024-01-27T08:54:16;13.32;;;3.20;;
59978;SDS011;45839;44.882;20.650;2024-01-27T08:56:43;16.73;;;5.38;;
59978;SDS011;45839;44.882;20.650;2024-01-27T08:59:09;9.90;;;2.67;;
59978;SDS011;45839;44.882;20.650;2024-01-27T09:01:35;9.05;;;1.90;;
59978;SDS011;45839;44.882;20.650;2024-01-27T09:04:01;10.07;;;2.47;;
59978;SDS011;45839;44.882;20.650;2024-01-27T09:06:27;6.90;;;1.67;;
59978;SDS011;45839;44.882;20.650;2024-01-27T09:08:53;7.13;;;2.00;;
59978;SDS011;45839;44.882;20.650;2024-01-27T09:11:19;9.07;;;2.47;;
59978;SDS011;45839;44.882;20.650;2024-01-27T09:13:47;8.05;;;2.15;;
59978;SDS011;45839;44.882;20.650;2024-01-27T09:16:16;7.65;;;1.73;;
59978;SDS011;45839;44.882;20.650;2024-01-27T09:18:42;6.05;;;1.70;;
59978;SDS011;45839;44.882;20.650;2024-01-27T09:21:09;8.65;;;1.95;;
59978;SDS011;45839;44.882;20.650;2024-01-27T09:23:35;6.18;;;1.73;;
59978;SDS011;45839;44.882;20.650;2024-01-27T09:26:02;5.68;;;1.35;;
59978;SDS011;45839;44.882;20.650;2024-01-27T09:28:28;7.22;;;1.58;;
59978;SDS011;45839;44.882;20.650;2024-01-27T09:30:54;4.90;;;1.38;;
59978;SDS011;45839;44.882;20.650;2024-01-27T09:33:20;5.63;;;1.70;;
59978;SDS011;45839;44.882;20.650;2024-01-27T09:35:48;8.10;;;1.77;;
59978;SDS011;45839;44.882;20.650;2024-01-27T09:38:15;8.63;;;2.00;;
59978;SDS011;45839;44.882;20.650;2024-01-27T09:40:41;12.05;;;1.90;;
59978;SDS011;45839;44.882;20.650;2024-01-27T09:43:07;10.02;;;2.88;;
59978;SDS011;45839;44.882;20.650;2024-01-27T09:45:39;8.05;;;2.00;;
59978;SDS011;45839;44.882;20.650;2024-01-27T09:48:05;7.45;;;1.98;;
59978;SDS011;45839;44.882;20.650;2024-01-27T09:50:33;7.85;;;1.83;;
59978;SDS011;45839;44.882;20.650;2024-01-27T09:53:00;7.88;;;2.47;;
59978;SDS011;45839;44.882;20.650;2024-01-27T09:55:26;7.00;;;1.42;;
59978;SDS011;45839;44.882;20.650;2024-01-27T09:57:55;6.05;;;1.88;;
59978;SDS011;45839;44.882;20.650;2024-01-27T10:00:21;7.15;;;1.55;;
59978;SDS011;45839;44.882;20.650;2024-01-27T10:02:48;7.80;;;1.80;;
59978;SDS011;45839;44.882;20.650;2024-01-27T10:05:17;6.22;;;1.60;;
59978;SDS011;45839;44.882;20.650;2024-01-27T10:07:44;6.20;;;1.70;;
59978;SDS011;45839;44.882;20.650;2024-01-27T10:10:10;6.97;;;1.95;;
59978;SDS011;45839;44.882;20.650;2024-01-27T10:12:42;7.65;;;1.75;;
59978;SDS011;45839;44.882;20.650;2024-01-27T10:15:18;8.82;;;2.00;;
59978;SDS011;45839;44.882;20.650;2024-01-27T10:17:44;9.15;;;2.15;;
59978;SDS011;45839;44.882;20.650;2024-01-27T10:20:11;6.03;;;1.63;;
59978;SDS011;45839;44.882;20.650;2024-01-27T10:22:46;9.93;;;2.50;;
59978;SDS011;45839;44.882;20.650;2024-01-27T10:25:12;6.63;;;2.20;;
59978;SDS011;45839;44.882;20.650;2024-01-27T10:27:39;10.45;;;2.05;;
59978;SDS011;45839;44.882;20.650;2024-01-27T10:30:05;7.45;;;1.60;;
59978;SDS011;45839;44.882;20.650;2024-01-27T10:32:35;8.18;;;2.22;;
59978;SDS011;45839;44.882;20.650;2024-01-27T10:35:02;7.55;;;2.08;;
59978;SDS011;45839;44.882;20.650;2024-01-27T10:37:28;7.28;;;1.80;;
59978;SDS011;45839;44.882;20.650;2024-01-27T10:42:28;6.15;;;1.80;;
59978;SDS011;45839;44.882;20.650;2024-01-27T10:44:57;6.53;;;1.90;;
59978;SDS011;45839;44.882;20.650;2024-01-27T10:47:24;6.70;;;1.75;;
59978;SDS011;45839;44.882;20.650;2024-01-27T10:49:52;7.75;;;1.85;;
59978;SDS011;45839;44.882;20.650;2024-01-27T10:52:21;7.35;;;1.85;;
59978;SDS011;45839;44.882;20.650;2024-01-27T10:54:53;6.20;;;2.13;;
59978;SDS011;45839;44.882;20.650;2024-01-27T10:57:20;8.02;;;1.80;;
59978;SDS011;45839;44.882;20.650;2024-01-27T10:59:46;6.40;;;1.80;;
59978;SDS011;45839;44.882;20.650;2024-01-27T11:02:14;11.13;;;2.55;;
59978;SDS011;45839;44.882;20.650;2024-01-27T11:04:43;8.10;;;2.00;;
59978;SDS011;45839;44.882;20.650;2024-01-27T11:07:12;5.88;;;1.40;;
59978;SDS011;45839;44.882;20.650;2024-01-27T11:09:45;7.82;;;1.83;;
59978;SDS011;45839;44.882;20.650;2024-01-27T11:12:11;7.05;;;1.85;;
59978;SDS011;45839;44.882;20.650;2024-01-27T11:14:37;7.35;;;1.92;;
59978;SDS011;45839;44.882;20.650;2024-01-27T11:17:03;7.63;;;1.75;;
59978;SDS011;45839;44.882;20.650;2024-01-27T11:19:30;8.23;;;1.92;;
59978;SDS011;45839;44.882;20.650;2024-01-27T11:22:04;13.57;;;4.60;;
59978;SDS011;45839;44.882;20.650;2024-01-27T11:24:30;34.95;;;12.35;;
59978;SDS011;45839;44.882;20.650;2024-01-27T11:27:14;20.70;;;7.30;;
59978;SDS011;45839;44.882;20.650;2024-01-27T11:29:46;27.30;;;7.93;;
59978;SDS011;45839;44.882;20.650;2024-01-27T11:32:13;18.10;;;6.32;;
59978;SDS011;45839;44.882;20.650;2024-01-27T11:34:42;20.85;;;5.88;;
59978;SDS011;45839;44.882;20.650;2024-01-27T11:37:13;8.40;;;3.05;;
59978;SDS011;45839;44.882;20.650;2024-01-27T11:39:40;10.48;;;3.10;;
59978;SDS011;45839;44.882;20.650;2024-01-27T11:42:09;11.07;;;2.30;;
59978;SDS011;45839;44.882;20.650;2024-01-27T11:44:39;7.03;;;1.75;;
59978;SDS011;45839;44.882;20.650;2024-01-27T11:47:08;9.52;;;1.80;;
59978;SDS011;45839;44.882;20.650;2024-01-27T11:49:39;8.90;;;2.10;;
59978;SDS011;45839;44.882;20.650;2024-01-27T11:52:06;7.28;;;2.05;;
59978;SDS011;45839;44.882;20.650;2024-01-27T11:54:32;6.28;;;1.65;;
59978;SDS011;45839;44.882;20.650;2024-01-27T11:56:58;6.38;;;2.15;;
59978;SDS011;45839;44.882;20.650;2024-01-27T11:59:24;7.05;;;1.70;;
59978;SDS011;45839;44.882;20.650;2024-01-27T12:01:50;6.85;;;1.63;;
59978;SDS011;45839;44.882;20.650;2024-01-27T12:04:17;5.80;;;1.35;;
59978;SDS011;45839;44.882;20.650;2024-01-27T12:06:44;5.43;;;1.30;;
59978;SDS011;45839;44.882;20.650;2024-01-27T12:09:11;4.00;;;1.20;;
59978;SDS011;45839;44.882;20.650;2024-01-27T12:11:39;8.63;;;1.98;;
59978;SDS011;45839;44.882;20.650;2024-01-27T12:14:08;4.90;;;1.42;;
59978;SDS011;45839;44.882;20.650;2024-01-27T12:16:34;5.70;;;1.20;;
59978;SDS011;45839;44.882;20.650;2024-01-27T12:19:01;5.72;;;1.67;;
59978;SDS011;45839;44.882;20.650;2024-01-27T12:21:27;5.13;;;1.17;;
59978;SDS011;45839;44.882;20.650;2024-01-27T12:23:56;4.90;;;1.40;;
59978;SDS011;45839;44.882;20.650;2024-01-27T12:26:27;6.20;;;1.40;;
59978;SDS011;45839;44.882;20.650;2024-01-27T12:28:54;7.55;;;1.55;;
59978;SDS011;45839;44.882;20.650;2024-01-27T12:31:23;5.35;;;1.30;;
59978;SDS011;45839;44.882;20.650;2024-01-27T12:33:50;6.47;;;1.90;;
59978;SDS011;45839;44.882;20.650;2024-01-27T12:36:17;6.22;;;1.50;;
59978;SDS011;45839;44.882;20.650;2024-01-27T12:39:02;5.20;;;1.40;;
59978;SDS011;45839;44.882;20.650;2024-01-27T12:41:29;5.55;;;1.25;;
59978;SDS011;45839;44.882;20.650;2024-01-27T12:43:58;7.35;;;1.92;;
59978;SDS011;45839;44.882;20.650;2024-01-27T12:46:25;5.22;;;1.65;;
59978;SDS011;45839;44.882;20.650;2024-01-27T12:48:51;4.75;;;1.33;;
59978;SDS011;45839;44.882;20.650;2024-01-27T12:51:18;4.72;;;1.50;;
59978;SDS011;45839;44.882;20.650;2024-01-27T12:53:44;5.55;;;1.60;;
59978;SDS011;45839;44.882;20.650;2024-01-27T12:56:10;8.55;;;1.48;;
59978;SDS011;45839;44.882;20.650;2024-01-27T12:58:37;5.07;;;1.45;;
59978;SDS011;45839;44.882;20.650;2024-01-27T13:01:03;5.65;;;1.92;;
59978;SDS011;45839;44.882;20.650;2024-01-27T13:03:29;6.10;;;1.50;;
59978;SDS011;45839;44.882;20.650;2024-01-27T13:05:56;8.02;;;1.88;;
59978;SDS011;45839;44.882;20.650;2024-01-27T13:08:22;5.70;;;1.42;;
59978;SDS011;45839;44.882;20.650;2024-01-27T13:10:48;6.28;;;1.85;;
59978;SDS011;45839;44.882;20.650;2024-01-27T13:13:18;7.18;;;2.40;;
59978;SDS011;45839;44.882;20.650;2024-01-27T13:15:45;7.00;;;2.22;;
59978;SDS011;45839;44.882;20.650;2024-01-27T13:18:11;5.55;;;1.70;;
59978;SDS011;45839;44.882;20.650;2024-01-27T13:20:37;7.07;;;1.90;;
59978;SDS011;45839;44.882;20.650;2024-01-27T13:23:05;5.70;;;1.58;;
59978;SDS011;45839;44.882;20.650;2024-01-27T13:25:31;9.70;;;1.98;;
59978;SDS011;45839;44.882;20.650;2024-01-27T13:27:57;4.85;;;1.70;;
59978;SDS011;45839;44.882;20.650;2024-01-27T13:30:23;5.18;;;1.77;;
59978;SDS011;45839;44.882;20.650;2024-01-27T13:32:50;8.30;;;2.00;;
59978;SDS011;45839;44.882;20.650;2024-01-27T13:35:16;6.78;;;1.80;;
59978;SDS011;45839;44.882;20.650;2024-01-27T13:37:42;8.82;;;2.17;;
59978;SDS011;45839;44.882;20.650;2024-01-27T13:40:09;4.75;;;1.67;;
59978;SDS011;45839;44.882;20.650;2024-01-27T13:42:38;7.25;;;1.80;;
59978;SDS011;45839;44.882;20.650;2024-01-27T13:45:04;5.93;;;1.45;;
59978;SDS011;45839;44.882;20.650;2024-01-27T13:47:30;7.03;;;1.80;;
59978;SDS011;45839;44.882;20.650;2024-01-27T13:49:57;9.95;;;1.92;;
59978;SDS011;45839;44.882;20.650;2024-01-27T13:52:23;6.97;;;1.70;;
59978;SDS011;45839;44.882;20.650;2024-01-27T13:54:49;6.75;;;2.22;;
59978;SDS011;45839;44.882;20.650;2024-01-27T13:57:15;8.43;;;1.83;;
59978;SDS011;45839;44.882;20.650;2024-01-27T13:59:42;8.05;;;2.13;;
59978;SDS011;45839;44.882;20.650;2024-01-27T14:02:08;5.25;;;1.92;;
59978;SDS011;45839;44.882;20.650;2024-01-27T14:04:34;7.55;;;1.83;;
59978;SDS011;45839;44.882;20.650;2024-01-27T14:07:00;7.00;;;1.83;;
59978;SDS011;45839;44.882;20.650;2024-01-27T14:09:31;5.82;;;1.90;;
59978;SDS011;45839;44.882;20.650;2024-01-27T14:11:57;6.03;;;1.42;;
59978;SDS011;45839;44.882;20.650;2024-01-27T14:14:23;6.55;;;2.05;;
59978;SDS011;45839;44.882;20.650;2024-01-27T14:16:49;6.80;;;1.70;;
59978;SDS011;45839;44.882;20.650;2024-01-27T14:19:15;9.80;;;2.50;;
59978;SDS011;45839;44.882;20.650;2024-01-27T14:21:41;7.15;;;1.80;;
59978;SDS011;45839;44.882;20.650;2024-01-27T14:24:08;5.63;;;1.65;;
59978;SDS011;45839;44.882;20.650;2024-01-27T14:26:35;6.13;;;1.90;;